createdAt,value
2017-11-05T00:01:15.908Z,8.40
2017-11-05T00:03:43.457Z,8.30
2017-11-05T00:06:10.957Z,8.30
2017-11-05T00:08:38.479Z,8.30
2017-11-05T00:11:05.974Z,8.30
2017-11-05T00:13:33.469Z,8.30
2017-11-05T00:16:00.951Z,8.20
2017-11-05T00:18:28.440Z,8.20
2017-11-05T00:20:56.689Z,8.20
2017-11-05T00:23:24.180Z,8.10
2017-11-05T00:25:51.679Z,8.10
2017-11-05T00:28:19.185Z,8.10
2017-11-05T00:30:47.446Z,8.10
2017-11-05T00:33:14.956Z,8.00
2017-11-05T00:35:42.475Z,8.00
2017-11-05T00:38:10.739Z,8.00
2017-11-05T00:40:38.235Z,8.00
2017-11-05T00:43:05.729Z,8.10
2017-11-05T00:45:33.219Z,8.10
2017-11-05T00:48:01.505Z,8.00
2017-11-05T00:50:29.761Z,8.00
2017-11-05T00:52:58.038Z,8.00
2017-11-05T00:55:25.585Z,8.00
2017-11-05T00:57:53.066Z,8.00
2017-11-05T01:00:21.336Z,7.90
2017-11-05T01:02:48.811Z,7.80
2017-11-05T01:05:17.114Z,7.80
2017-11-05T01:07:44.598Z,7.80
2017-11-05T01:10:12.157Z,7.80
2017-11-05T01:12:39.649Z,7.80
2017-11-05T01:15:08.004Z,7.80
2017-11-05T01:17:35.493Z,7.80
2017-11-05T01:20:03.048Z,7.80
2017-11-05T01:22:31.311Z,7.80
2017-11-05T01:24:58.796Z,7.80
2017-11-05T01:27:27.243Z,7.80
2017-11-05T01:29:54.740Z,7.80
2017-11-05T01:32:22.227Z,7.80
2017-11-05T01:34:49.720Z,7.80
2017-11-05T01:37:17.220Z,7.90
2017-11-05T01:39:44.711Z,7.80
2017-11-05T01:42:12.199Z,7.90
2017-11-05T01:44:39.810Z,7.90
2017-11-05T01:47:07.381Z,7.90
2017-11-05T01:49:34.863Z,7.90
2017-11-05T01:52:02.376Z,7.90
2017-11-05T01:54:29.925Z,8.00
2017-11-05T01:56:57.440Z,8.00
2017-11-05T01:59:24.920Z,8.00
2017-11-05T02:01:53.197Z,8.00
2017-11-05T02:04:21.452Z,8.00
2017-11-05T02:06:48.943Z,8.00
2017-11-05T02:09:16.425Z,8.10
2017-11-05T02:11:43.923Z,8.10
2017-11-05T02:14:11.456Z,8.10
2017-11-05T02:16:38.952Z,8.10
2017-11-05T02:19:06.548Z,8.20
2017-11-05T02:21:34.094Z,8.20
2017-11-05T02:24:01.604Z,8.20
2017-11-05T02:26:29.104Z,8.20
2017-11-05T02:28:57.345Z,8.20
2017-11-05T02:33:58.918Z,8.20
2017-11-05T02:36:26.476Z,8.20
2017-11-05T02:38:53.976Z,8.20
2017-11-05T02:41:21.464Z,8.20
2017-11-05T02:43:48.944Z,8.20
2017-11-05T02:46:16.435Z,8.30
2017-11-05T02:48:44.690Z,8.30
2017-11-05T02:51:12.176Z,8.30
2017-11-05T02:53:40.426Z,8.30
2017-11-05T02:56:07.918Z,8.30
2017-11-05T02:58:35.400Z,8.30
2017-11-05T03:01:02.898Z,8.30
2017-11-05T03:03:30.389Z,8.20
2017-11-05T03:05:57.876Z,8.20
2017-11-05T03:08:25.365Z,8.20
2017-11-05T03:10:52.878Z,8.30
2017-11-05T03:13:20.387Z,8.30
2017-11-05T03:15:47.876Z,8.30
2017-11-05T03:18:15.377Z,8.40
2017-11-05T03:20:42.872Z,8.50
2017-11-05T03:23:11.164Z,8.60
2017-11-05T03:25:39.505Z,8.60
2017-11-05T03:28:07.049Z,8.50
2017-11-05T03:30:34.525Z,8.60
2017-11-05T03:33:02.837Z,8.60
2017-11-05T03:35:31.110Z,8.60
2017-11-05T03:37:58.685Z,8.60
2017-11-05T03:40:26.235Z,8.60
2017-11-05T03:42:53.731Z,8.60
2017-11-05T03:45:21.256Z,8.60
2017-11-05T03:47:48.753Z,8.60
2017-11-05T03:50:16.242Z,8.60
2017-11-05T03:52:43.748Z,8.60
2017-11-05T03:55:11.271Z,8.60
2017-11-05T03:57:39.520Z,8.60
2017-11-05T04:00:07.009Z,8.60
2017-11-05T04:02:35.282Z,8.60
2017-11-05T04:05:03.527Z,8.60
2017-11-05T04:07:31.010Z,8.50
2017-11-05T04:09:59.270Z,8.60
2017-11-05T04:12:26.756Z,8.60
2017-11-05T04:14:54.260Z,8.60
2017-11-05T04:17:22.763Z,8.50
2017-11-05T04:19:50.248Z,8.50
2017-11-05T04:22:18.487Z,8.50
2017-11-05T04:24:45.991Z,8.50
2017-11-05T04:27:13.485Z,8.60
2017-11-05T04:29:41.792Z,8.50
2017-11-05T04:32:09.295Z,8.50
2017-11-05T04:34:36.837Z,8.50
2017-11-05T04:37:05.117Z,8.40
2017-11-05T04:39:32.793Z,8.40
2017-11-05T04:42:00.271Z,8.50
2017-11-05T04:44:27.755Z,8.50
2017-11-05T04:46:55.256Z,8.50
2017-11-05T04:49:22.732Z,8.50
2017-11-05T04:51:50.227Z,8.50
2017-11-05T04:54:17.760Z,8.40
2017-11-05T04:56:45.254Z,8.40
2017-11-05T04:59:12.844Z,8.40
2017-11-05T05:01:40.351Z,8.40
2017-11-05T05:04:07.850Z,8.50
2017-11-05T05:06:36.159Z,8.50
2017-11-05T05:09:03.701Z,8.50
2017-11-05T05:11:31.186Z,8.50
2017-11-05T05:13:58.662Z,8.50
2017-11-05T05:16:26.942Z,8.50
2017-11-05T05:18:54.432Z,8.50
2017-11-05T05:21:22.677Z,8.50
2017-11-05T05:23:50.177Z,8.50
2017-11-05T05:26:17.664Z,8.50
2017-11-05T05:28:45.151Z,8.50
2017-11-05T05:31:12.750Z,8.50
2017-11-05T05:33:41.032Z,8.50
2017-11-05T05:36:08.569Z,8.50
2017-11-05T05:38:36.895Z,8.60
2017-11-05T05:41:04.544Z,8.60
2017-11-05T05:43:32.111Z,8.60
2017-11-05T05:45:59.615Z,8.60
2017-11-05T05:48:27.104Z,8.60
2017-11-05T05:50:54.625Z,8.50
2017-11-05T05:53:22.132Z,8.50
2017-11-05T05:55:49.619Z,8.50
2017-11-05T05:58:17.111Z,8.50
2017-11-05T06:00:45.391Z,8.60
2017-11-05T06:03:13.636Z,8.60
2017-11-05T06:05:41.131Z,8.60
2017-11-05T06:08:09.387Z,8.60
2017-11-05T06:10:36.872Z,8.60
2017-11-05T06:13:04.446Z,8.60
2017-11-05T06:15:32.061Z,8.60
2017-11-05T06:17:59.674Z,8.50
2017-11-05T06:20:27.175Z,8.60
2017-11-05T06:22:55.527Z,8.60
2017-11-05T06:25:23.014Z,8.60
2017-11-05T06:27:50.498Z,8.50
2017-11-05T06:30:18.770Z,8.50
2017-11-05T06:32:47.023Z,8.60
2017-11-05T06:35:14.507Z,8.60
2017-11-05T06:37:42.796Z,8.60
2017-11-05T06:40:10.276Z,8.60
2017-11-05T06:42:37.762Z,8.60
2017-11-05T06:45:05.280Z,8.50
2017-11-05T06:47:32.764Z,8.60
2017-11-05T06:50:00.258Z,8.60
2017-11-05T06:52:27.784Z,8.60
2017-11-05T06:54:55.368Z,8.60
2017-11-05T06:57:22.893Z,8.60
2017-11-05T06:59:50.437Z,8.70
2017-11-05T07:02:17.954Z,8.70
2017-11-05T07:04:45.485Z,8.80
2017-11-05T07:07:12.991Z,8.90
2017-11-05T07:09:41.229Z,9.10
2017-11-05T07:12:08.708Z,9.10
2017-11-05T07:14:36.979Z,9.20
2017-11-05T07:17:05.245Z,9.20
2017-11-05T07:19:32.736Z,9.20
2017-11-05T07:22:00.249Z,9.30
2017-11-05T07:24:27.724Z,9.40
2017-11-05T07:26:55.256Z,9.50
2017-11-05T07:29:22.775Z,9.60
2017-11-05T07:31:50.320Z,9.70
2017-11-05T07:34:17.839Z,9.90
2017-11-05T07:36:45.379Z,10.00
2017-11-05T07:39:12.882Z,10.20
2017-11-05T07:41:41.139Z,10.50
2017-11-05T07:44:08.640Z,10.50
2017-11-05T07:46:36.902Z,10.70
2017-11-05T07:49:05.257Z,10.90
2017-11-05T07:51:33.615Z,11.00
2017-11-05T07:54:01.144Z,11.00
2017-11-05T07:56:28.635Z,11.10
2017-11-05T07:58:56.143Z,11.20
2017-11-05T08:01:23.624Z,11.30
2017-11-05T08:03:51.129Z,11.40
2017-11-05T08:06:18.634Z,11.50
2017-11-05T08:08:46.123Z,11.60
2017-11-05T08:11:13.615Z,11.90
2017-11-05T08:13:41.920Z,12.40
2017-11-05T08:16:09.408Z,12.40
2017-11-05T08:18:36.901Z,12.60
2017-11-05T08:21:05.190Z,13.00
2017-11-05T08:23:33.436Z,13.20
2017-11-05T08:26:00.929Z,13.10
2017-11-05T08:28:29.203Z,13.10
2017-11-05T08:30:57.454Z,13.30
2017-11-05T08:33:24.941Z,13.20
2017-11-05T08:35:52.444Z,13.40
2017-11-05T08:38:19.931Z,13.90
2017-11-05T08:40:47.417Z,14.20
2017-11-05T08:43:14.925Z,14.30
2017-11-05T08:45:42.412Z,14.40
2017-11-05T08:48:10.672Z,14.40
2017-11-05T08:50:38.189Z,14.40
2017-11-05T08:53:05.680Z,14.40
2017-11-05T08:55:33.158Z,14.50
2017-11-05T08:58:00.655Z,14.00
2017-11-05T09:00:28.177Z,13.90
2017-11-05T09:02:56.424Z,14.00
2017-11-05T09:05:23.932Z,14.00
2017-11-05T09:07:51.417Z,13.80
2017-11-05T09:10:18.906Z,13.70
2017-11-05T09:12:46.414Z,14.10
2017-11-05T09:15:13.953Z,14.50
2017-11-05T09:17:42.225Z,15.30
2017-11-05T09:20:10.508Z,15.50
2017-11-05T09:22:38.771Z,15.50
2017-11-05T09:25:07.019Z,15.70
2017-11-05T09:27:34.515Z,15.60
2017-11-05T09:30:02.789Z,16.10
2017-11-05T09:32:31.048Z,16.30
2017-11-05T09:34:58.548Z,16.30
2017-11-05T09:37:26.030Z,16.60
2017-11-05T09:39:53.637Z,16.90
2017-11-05T09:42:21.908Z,17.00
2017-11-05T09:44:50.160Z,17.30
2017-11-05T09:47:17.660Z,17.20
2017-11-05T09:49:45.928Z,17.50
2017-11-05T09:52:13.433Z,17.40
2017-11-05T09:54:40.912Z,17.30
2017-11-05T09:57:08.501Z,17.50
2017-11-05T09:59:36.774Z,17.80
2017-11-05T10:02:05.083Z,18.40
2017-11-05T10:04:32.607Z,18.30
2017-11-05T10:07:00.864Z,18.70
2017-11-05T10:09:28.357Z,18.70
2017-11-05T10:11:55.873Z,19.20
2017-11-05T10:14:23.473Z,19.60
2017-11-05T10:16:51.783Z,19.90
2017-11-05T10:19:19.328Z,19.90
2017-11-05T10:21:46.832Z,19.70
2017-11-05T10:24:14.326Z,19.90
2017-11-05T10:26:41.889Z,20.20
2017-11-05T10:29:09.381Z,20.00
2017-11-05T10:31:36.901Z,19.90
2017-11-05T10:34:05.173Z,19.80
2017-11-05T10:36:34.222Z,19.30
2017-11-05T10:39:01.759Z,19.30
2017-11-05T10:41:29.304Z,18.80
2017-11-05T10:43:56.828Z,18.40
2017-11-05T10:46:25.087Z,17.60
2017-11-05T10:48:52.621Z,17.50
2017-11-05T10:51:20.104Z,17.40
2017-11-05T10:53:47.602Z,17.20
2017-11-05T10:56:15.146Z,17.00
2017-11-05T11:01:17.414Z,16.30
2017-11-05T11:03:44.897Z,16.30
2017-11-05T11:06:13.189Z,16.00
2017-11-05T11:08:40.750Z,16.00
2017-11-05T11:11:08.256Z,15.80
2017-11-05T11:13:35.757Z,15.60
2017-11-05T11:16:03.283Z,15.50
2017-11-05T11:18:30.779Z,15.50
2017-11-05T11:20:58.312Z,15.40
2017-11-05T11:23:26.587Z,15.20
2017-11-05T11:25:54.887Z,15.10
2017-11-05T11:28:22.387Z,15.00
2017-11-05T11:30:49.900Z,15.10
2017-11-05T11:33:17.400Z,15.40
2017-11-05T11:35:44.903Z,15.60
2017-11-05T11:38:13.180Z,15.80
2017-11-05T11:40:41.445Z,16.00
2017-11-05T11:43:08.949Z,16.00
2017-11-05T11:45:36.453Z,16.40
2017-11-05T11:48:04.778Z,17.10
2017-11-05T11:50:32.261Z,17.00
2017-11-05T11:52:59.766Z,17.00
2017-11-05T11:55:27.282Z,16.80
2017-11-05T11:57:54.813Z,16.60
2017-11-05T12:00:22.312Z,16.30
2017-11-05T12:02:49.830Z,16.60
2017-11-05T12:05:17.330Z,16.90
2017-11-05T12:07:44.932Z,17.00
2017-11-05T12:10:12.429Z,16.70
2017-11-05T12:12:39.983Z,16.40
2017-11-05T12:15:07.511Z,16.50
2017-11-05T12:17:35.026Z,16.80
2017-11-05T12:20:02.528Z,16.90
2017-11-05T12:22:30.063Z,17.30
2017-11-05T12:24:58.328Z,17.10
2017-11-05T12:27:26.644Z,17.00
2017-11-05T12:29:54.180Z,17.00
2017-11-05T12:32:21.740Z,17.00
2017-11-05T12:34:49.996Z,17.00
2017-11-05T12:37:17.521Z,17.00
2017-11-05T12:39:45.038Z,16.90
2017-11-05T12:42:12.560Z,16.50
2017-11-05T12:44:40.065Z,16.40
2017-11-05T12:47:07.562Z,16.40
2017-11-05T12:49:35.084Z,16.40
2017-11-05T12:52:02.596Z,16.30
2017-11-05T12:54:30.090Z,16.20
2017-11-05T12:56:57.617Z,16.20
2017-11-05T12:59:25.124Z,16.40
2017-11-05T13:01:52.635Z,16.60
2017-11-05T13:04:20.922Z,16.70
2017-11-05T13:06:49.199Z,16.90
2017-11-05T13:09:17.471Z,16.70
2017-11-05T13:11:44.967Z,16.70
2017-11-05T13:14:12.489Z,16.50
2017-11-05T13:16:40.763Z,16.20
2017-11-05T13:19:08.277Z,16.20
2017-11-05T13:21:35.967Z,16.00
2017-11-05T13:24:03.503Z,15.80
2017-11-05T13:26:31.011Z,15.60
2017-11-05T13:28:59.328Z,15.30
2017-11-05T13:31:26.817Z,15.30
2017-11-05T13:33:54.313Z,15.20
2017-11-05T13:36:22.752Z,15.00
2017-11-05T13:38:51.021Z,14.90
2017-11-05T13:41:18.516Z,14.90
2017-11-05T13:43:46.788Z,14.90
2017-11-05T13:46:15.066Z,14.80
2017-11-05T13:48:43.323Z,14.80
2017-11-05T13:51:10.835Z,14.80
2017-11-05T13:53:38.323Z,14.70
2017-11-05T13:56:05.821Z,14.70
2017-11-05T13:58:34.113Z,14.50
2017-11-05T14:01:01.616Z,14.50
2017-11-05T14:03:29.141Z,14.40
2017-11-05T14:05:56.708Z,14.40
2017-11-05T14:08:24.195Z,14.30
2017-11-05T14:10:51.700Z,14.30
2017-11-05T14:13:19.222Z,14.20
2017-11-05T14:15:46.725Z,14.10
2017-11-05T14:18:14.230Z,14.00
2017-11-05T14:20:42.565Z,13.90
2017-11-05T14:23:10.131Z,13.90
2017-11-05T14:25:37.688Z,13.80
2017-11-05T14:28:05.232Z,13.80
2017-11-05T14:30:32.743Z,13.70
2017-11-05T14:33:00.227Z,13.60
2017-11-05T14:35:28.725Z,13.50
2017-11-05T14:37:57.106Z,13.50
2017-11-05T14:40:24.740Z,13.50
2017-11-05T14:42:52.260Z,13.50
2017-11-05T14:45:19.761Z,13.40
2017-11-05T14:47:47.319Z,13.30
2017-11-05T14:50:14.824Z,13.20
2017-11-05T14:52:42.534Z,13.20
2017-11-05T14:55:10.808Z,13.10
2017-11-05T14:57:38.325Z,13.10
2017-11-05T15:00:05.821Z,13.10
2017-11-05T15:02:33.316Z,13.00
2017-11-05T15:05:00.836Z,12.90
2017-11-05T15:10:02.333Z,12.80
2017-11-05T15:12:30.638Z,12.60
2017-11-05T15:14:58.162Z,12.60
2017-11-05T15:17:26.474Z,12.50
2017-11-05T15:19:54.100Z,12.40
2017-11-05T15:22:22.405Z,12.40
2017-11-05T15:24:49.940Z,12.40
2017-11-05T15:27:18.250Z,12.30
2017-11-05T15:29:45.819Z,12.30
2017-11-05T15:32:13.339Z,12.40
2017-11-05T15:34:41.583Z,12.30
2017-11-05T15:37:09.078Z,12.30
2017-11-05T15:39:36.600Z,12.30
2017-11-05T15:42:04.931Z,12.10
2017-11-05T15:44:32.495Z,12.10
2017-11-05T15:46:59.996Z,12.00
2017-11-05T15:49:27.489Z,12.10
2017-11-05T15:51:55.001Z,12.00
2017-11-05T15:54:22.552Z,11.90
2017-11-05T15:56:50.056Z,11.90
2017-11-05T15:59:18.300Z,11.80
2017-11-05T16:01:45.814Z,11.80
2017-11-05T16:04:13.313Z,11.80
2017-11-05T16:06:40.821Z,11.70
2017-11-05T16:09:08.335Z,11.70
2017-11-05T16:11:35.824Z,11.60
2017-11-05T16:14:04.131Z,11.60
2017-11-05T16:16:31.663Z,11.60
2017-11-05T16:18:59.161Z,11.50
2017-11-05T16:21:27.144Z,11.50
2017-11-05T16:23:54.640Z,11.50
2017-11-05T16:26:22.936Z,11.40
2017-11-05T16:28:50.427Z,11.40
2017-11-05T16:31:17.985Z,11.40
2017-11-05T16:33:46.256Z,11.30
2017-11-05T16:36:13.793Z,11.30
2017-11-05T16:38:41.404Z,11.30
2017-11-05T16:41:08.946Z,11.20
2017-11-05T16:43:36.443Z,11.20
2017-11-05T16:46:04.804Z,11.10
2017-11-05T16:48:32.316Z,11.10
2017-11-05T16:50:59.914Z,11.10
2017-11-05T16:53:27.436Z,11.10
2017-11-05T16:55:55.059Z,11.10
2017-11-05T16:58:22.623Z,11.10
2017-11-05T17:00:50.298Z,11.00
2017-11-05T17:03:17.856Z,11.00
2017-11-05T17:05:45.373Z,11.00
2017-11-05T17:08:12.863Z,11.00
2017-11-05T17:10:41.215Z,11.00
2017-11-05T17:13:08.762Z,11.00
2017-11-05T17:15:36.339Z,11.00
2017-11-05T17:18:03.906Z,11.00
2017-11-05T17:20:32.192Z,10.90
2017-11-05T17:23:00.460Z,10.90
2017-11-05T17:25:28.169Z,10.90
2017-11-05T17:27:57.339Z,10.90
2017-11-05T17:30:24.883Z,10.90
2017-11-05T17:32:53.044Z,10.80
2017-11-05T17:35:20.652Z,10.80
2017-11-05T17:37:48.176Z,10.80
2017-11-05T17:40:15.724Z,10.80
2017-11-05T17:42:43.223Z,10.80
2017-11-05T17:45:10.713Z,10.80
2017-11-05T17:47:38.219Z,10.80
2017-11-05T17:50:05.760Z,10.80
2017-11-05T17:52:34.105Z,10.80
2017-11-05T17:55:01.725Z,10.80
2017-11-05T17:57:29.244Z,10.80
2017-11-05T17:59:56.803Z,10.80
2017-11-05T18:02:24.311Z,10.80
2017-11-05T18:04:51.865Z,10.70
2017-11-05T18:07:19.420Z,10.70
2017-11-05T18:09:47.021Z,10.80
2017-11-05T18:12:14.653Z,10.80
2017-11-05T18:14:42.154Z,10.70
2017-11-05T18:17:09.660Z,10.70
2017-11-05T18:19:37.222Z,10.70
2017-11-05T18:22:04.725Z,10.70
2017-11-05T18:24:32.292Z,10.70
2017-11-05T18:26:59.804Z,10.70
2017-11-05T18:29:27.388Z,10.70
2017-11-05T18:31:54.876Z,10.60
2017-11-05T18:34:22.417Z,10.60
2017-11-05T18:36:50.749Z,10.60
2017-11-05T18:39:18.240Z,10.60
2017-11-05T18:41:45.751Z,10.60
2017-11-05T18:44:30.057Z,10.60
2017-11-05T18:46:58.455Z,10.60
2017-11-05T18:49:29.087Z,10.60
2017-11-05T18:51:56.609Z,10.60
2017-11-05T18:54:24.103Z,10.50
2017-11-05T18:56:51.604Z,10.50
2017-11-05T18:59:19.124Z,10.50
2017-11-05T19:01:46.626Z,10.30
2017-11-05T19:04:14.156Z,10.30
2017-11-05T19:06:41.673Z,10.20
2017-11-05T19:09:09.176Z,10.10
2017-11-05T19:11:37.467Z,10.00
2017-11-05T19:14:04.981Z,10.00
2017-11-05T19:16:32.459Z,9.90
2017-11-05T19:19:00.723Z,9.70
2017-11-05T19:21:28.222Z,9.70
2017-11-05T19:23:55.756Z,9.70
2017-11-05T19:26:24.012Z,9.60
2017-11-05T19:28:51.523Z,9.60
2017-11-05T19:31:19.017Z,9.60
2017-11-05T19:33:47.475Z,9.60
2017-11-05T19:36:15.002Z,9.60
2017-11-05T19:38:42.478Z,9.60
2017-11-05T19:41:09.991Z,9.60
2017-11-05T19:43:37.513Z,9.60
2017-11-05T19:46:05.000Z,9.60
2017-11-05T19:49:11.584Z,9.70
2017-11-05T19:51:39.844Z,9.60
2017-11-05T19:54:07.384Z,9.60
2017-11-05T19:56:35.873Z,9.60
2017-11-05T19:59:27.349Z,9.60
2017-11-05T20:01:55.779Z,9.60
2017-11-05T20:04:27.152Z,9.60
2017-11-05T20:06:55.543Z,9.60
2017-11-05T20:09:25.664Z,9.60
2017-11-05T20:11:53.921Z,9.60
2017-11-05T20:14:22.185Z,9.60
2017-11-05T20:16:49.668Z,9.60
2017-11-05T20:19:17.166Z,9.50
2017-11-05T20:21:44.640Z,9.70
2017-11-05T20:24:12.118Z,9.60
2017-11-05T20:26:39.673Z,9.50
2017-11-05T20:29:07.206Z,9.50
2017-11-05T20:31:34.715Z,9.50
2017-11-05T20:34:02.954Z,9.60
2017-11-05T20:36:30.433Z,9.50
2017-11-05T20:38:58.715Z,9.50
2017-11-05T20:41:26.962Z,9.50
2017-11-05T20:43:55.279Z,9.50
2017-11-05T20:46:23.532Z,9.50
2017-11-05T20:48:51.792Z,9.50
2017-11-05T20:51:19.323Z,9.50
2017-11-05T20:53:47.585Z,9.30
2017-11-05T20:56:15.075Z,9.30
2017-11-05T20:58:42.888Z,9.30
2017-11-05T21:01:11.240Z,9.40
2017-11-05T21:03:39.743Z,9.40
2017-11-05T21:06:08.082Z,9.50
2017-11-05T21:08:36.828Z,9.40
2017-11-05T21:11:04.349Z,9.40
2017-11-05T21:13:31.873Z,9.40
2017-11-05T21:15:59.412Z,9.40
2017-11-05T21:18:26.922Z,9.40
2017-11-05T21:20:55.214Z,9.30
2017-11-05T21:23:22.751Z,9.20
2017-11-05T21:25:51.097Z,9.20
2017-11-05T21:28:18.591Z,9.20
2017-11-05T21:30:46.117Z,9.20
2017-11-05T21:33:13.611Z,9.10
2017-11-05T21:35:41.085Z,9.10
2017-11-05T21:38:09.364Z,9.10
2017-11-05T21:40:37.616Z,9.10
2017-11-05T21:43:05.111Z,9.10
2017-11-05T21:45:32.630Z,9.10
2017-11-05T21:48:00.152Z,9.10
2017-11-05T21:50:27.642Z,9.10
2017-11-05T21:52:55.157Z,9.10
2017-11-05T21:55:22.659Z,9.10
2017-11-05T21:57:50.210Z,9.10
2017-11-05T22:00:17.715Z,9.10
2017-11-05T22:02:45.244Z,9.00
2017-11-05T22:05:12.733Z,9.00
2017-11-05T22:07:40.290Z,9.00
2017-11-05T22:10:14.299Z,9.00
2017-11-05T22:12:42.635Z,8.90
2017-11-05T22:15:10.907Z,8.90
2017-11-05T22:17:38.407Z,8.90
2017-11-05T22:20:06.651Z,8.90
2017-11-05T22:22:34.148Z,8.90
2017-11-05T22:25:01.725Z,8.90
2017-11-05T22:27:29.216Z,8.90
2017-11-05T22:29:56.736Z,8.90
2017-11-05T22:32:24.215Z,8.90
2017-11-05T22:34:51.729Z,8.90
2017-11-05T22:37:19.978Z,8.90
2017-11-05T22:39:47.455Z,8.90
2017-11-05T22:42:15.761Z,8.90
2017-11-05T22:44:43.256Z,8.80
2017-11-05T22:47:10.760Z,8.80
2017-11-05T22:49:38.230Z,8.90
2017-11-05T22:52:05.705Z,8.80
2017-11-05T22:54:33.192Z,8.80
2017-11-05T22:57:00.690Z,8.80
2017-11-05T22:59:29.090Z,8.80
2017-11-05T23:01:56.595Z,8.80
2017-11-05T23:04:24.109Z,8.80
2017-11-05T23:06:51.595Z,8.80
2017-11-05T23:09:19.067Z,8.80
2017-11-05T23:11:46.592Z,8.70
2017-11-05T23:14:14.080Z,8.70
2017-11-05T23:16:41.595Z,8.70
2017-11-05T23:19:09.752Z,8.70
2017-11-05T23:21:38.011Z,8.70
2017-11-05T23:24:06.285Z,8.60
2017-11-05T23:26:34.933Z,8.70
2017-11-05T23:29:02.414Z,8.60
2017-11-05T23:31:30.674Z,8.70
2017-11-05T23:33:58.213Z,8.70
2017-11-05T23:36:25.753Z,8.60
2017-11-05T23:38:53.231Z,8.60
2017-11-05T23:41:20.723Z,8.60
2017-11-05T23:43:48.217Z,8.60
2017-11-05T23:46:15.724Z,8.60
2017-11-05T23:48:43.255Z,8.60
2017-11-05T23:51:10.735Z,8.60
2017-11-05T23:53:38.295Z,8.60
2017-11-05T23:56:05.825Z,8.60
2017-11-05T23:58:33.320Z,8.60
